Terminal Aerodrome Forecast
Issued by NWS Twin Cities, MN

Home | Current Version | Previous Version | Text Only | Print | Product List | Glossary Off
Versions: 1 2 3 4 5 6 7 8 9 10 11 12 13 14

000
FTUS43 KMPX 200500
TAFEAU
TAF
KEAU 200535Z 2006/2106 27010KT P6SM BKN035
     FM201300 29009G15KT P6SM SCT040
     FM210000 25004KT P6SM SKC=

USA.gov is the U.S. government's official web portal to all federal, state and local government web resources and services.